createdAt,value
2017-09-15T00:01:33.719Z,75.90
2017-09-15T00:04:02.122Z,75.50
2017-09-15T00:06:31.371Z,75.90
2017-09-15T00:08:59.762Z,75.80
2017-09-15T00:11:28.139Z,75.80
2017-09-15T00:13:56.617Z,75.30
2017-09-15T00:16:24.987Z,75.30
2017-09-15T00:18:53.349Z,75.80
2017-09-15T00:21:21.755Z,75.50
2017-09-15T00:23:50.134Z,75.30
2017-09-15T00:26:18.523Z,73.80
2017-09-15T00:28:47.314Z,73.70
2017-09-15T00:31:15.703Z,73.80
2017-09-15T00:33:44.071Z,74.80
2017-09-15T00:36:12.507Z,75.40
2017-09-15T00:38:40.897Z,75.60
2017-09-15T00:41:10.398Z,75.70
2017-09-15T00:43:38.845Z,75.60
2017-09-15T00:46:08.015Z,76.20
2017-09-15T00:48:36.494Z,76.10
2017-09-15T00:51:05.333Z,76.40
2017-09-15T00:53:33.731Z,76.40
2017-09-15T00:56:02.550Z,76.60
2017-09-15T00:58:30.985Z,76.90
2017-09-15T01:00:59.354Z,76.90
2017-09-15T01:03:27.743Z,77.00
2017-09-15T01:05:56.184Z,77.30
2017-09-15T01:08:24.603Z,77.40
2017-09-15T01:10:53.012Z,77.70
2017-09-15T01:13:21.442Z,77.90
2017-09-15T01:15:50.582Z,78.60
2017-09-15T01:18:18.963Z,78.50
2017-09-15T01:20:47.386Z,79.00
2017-09-15T01:23:16.540Z,79.60
2017-09-15T01:25:44.926Z,79.50
2017-09-15T01:28:13.328Z,79.90
2017-09-15T01:30:42.462Z,80.30
2017-09-15T01:33:10.826Z,80.30
2017-09-15T01:35:39.233Z,80.50
2017-09-15T01:38:07.621Z,80.90
2017-09-15T01:40:35.990Z,81.30
2017-09-15T01:43:04.413Z,81.60
2017-09-15T01:45:32.843Z,81.80
2017-09-15T01:48:01.221Z,82.20
2017-09-15T01:50:29.616Z,82.20
2017-09-15T01:52:59.475Z,82.50
2017-09-15T01:55:27.910Z,82.70
2017-09-15T01:57:56.308Z,82.80
2017-09-15T02:00:24.911Z,82.90
2017-09-15T02:02:54.042Z,83.40
2017-09-15T02:05:22.487Z,83.10
2017-09-15T02:07:50.895Z,83.10
2017-09-15T02:10:19.316Z,83.10
2017-09-15T02:12:47.805Z,83.10
2017-09-15T02:15:16.192Z,83.20
2017-09-15T02:17:44.569Z,83.30
2017-09-15T02:20:12.993Z,83.30
2017-09-15T02:22:41.403Z,83.40
2017-09-15T02:25:10.315Z,83.70
2017-09-15T02:27:39.440Z,83.70
2017-09-15T02:30:09.030Z,84.00
2017-09-15T02:32:38.011Z,84.00
2017-09-15T02:35:06.891Z,84.40
2017-09-15T02:37:35.755Z,84.20
2017-09-15T02:40:04.632Z,84.10
2017-09-15T02:42:33.369Z,84.50
2017-09-15T02:45:02.207Z,84.10
2017-09-15T02:47:31.067Z,84.00
2017-09-15T02:50:00.740Z,84.10
2017-09-15T02:52:29.608Z,84.10
2017-09-15T02:54:58.538Z,83.90
2017-09-15T02:57:27.492Z,83.90
2017-09-15T02:59:55.858Z,83.80
2017-09-15T03:02:24.260Z,84.60
2017-09-15T03:04:52.659Z,84.10
2017-09-15T03:07:21.034Z,84.60
2017-09-15T03:09:49.434Z,84.60
2017-09-15T03:12:18.104Z,85.20
2017-09-15T03:14:46.490Z,85.50
2017-09-15T03:17:14.862Z,85.50
2017-09-15T03:19:43.332Z,85.90
2017-09-15T03:22:11.755Z,86.10
2017-09-15T03:24:40.130Z,86.00
2017-09-15T03:27:09.801Z,85.70
2017-09-15T03:29:38.179Z,85.70
2017-09-15T03:32:06.551Z,85.90
2017-09-15T03:34:34.965Z,86.10
2017-09-15T03:37:04.100Z,86.00
2017-09-15T03:39:32.478Z,85.90
2017-09-15T03:42:00.895Z,85.80
2017-09-15T03:44:29.279Z,85.50
2017-09-15T03:46:57.658Z,85.60
2017-09-15T03:49:26.076Z,85.60
2017-09-15T03:51:54.488Z,85.60
2017-09-15T03:54:22.872Z,85.80
2017-09-15T03:56:51.563Z,86.30
2017-09-15T03:59:20.186Z,86.40
2017-09-15T04:01:49.332Z,86.50
2017-09-15T04:04:17.731Z,86.40
2017-09-15T04:06:46.111Z,87.00
2017-09-15T04:09:14.486Z,87.70
2017-09-15T04:11:42.907Z,87.60
2017-09-15T04:14:11.287Z,87.90
2017-09-15T04:16:39.677Z,87.80
2017-09-15T04:19:08.150Z,88.00
2017-09-15T04:21:36.583Z,88.30
2017-09-15T04:24:04.955Z,88.80
2017-09-15T04:26:33.355Z,88.90
2017-09-15T04:29:01.765Z,89.00
2017-09-15T04:31:30.891Z,88.70
2017-09-15T04:33:59.294Z,88.70
2017-09-15T04:36:27.670Z,88.70
2017-09-15T04:38:56.047Z,88.70
2017-09-15T04:41:24.472Z,89.60
2017-09-15T04:43:52.847Z,89.70
2017-09-15T04:46:21.221Z,88.90
2017-09-15T04:48:50.471Z,90.00
2017-09-15T04:51:18.850Z,90.00
2017-09-15T04:53:47.246Z,90.10
2017-09-15T04:56:15.643Z,90.00
2017-09-15T04:58:45.052Z,89.80
2017-09-15T05:01:14.198Z,90.00
2017-09-15T05:03:42.621Z,90.00
2017-09-15T05:06:11.046Z,90.20
2017-09-15T05:08:39.444Z,90.40
2017-09-15T05:11:07.874Z,90.30
2017-09-15T05:13:37.018Z,90.20
2017-09-15T05:16:05.393Z,90.20
2017-09-15T05:18:33.822Z,90.50
2017-09-15T05:21:02.966Z,90.20
2017-09-15T05:23:31.345Z,90.20
2017-09-15T05:25:59.761Z,90.20
2017-09-15T05:28:28.217Z,90.40
2017-09-15T05:30:56.594Z,90.20
2017-09-15T05:33:25.006Z,90.10
2017-09-15T05:35:54.161Z,90.00
2017-09-15T05:38:22.574Z,90.00
2017-09-15T05:40:51.807Z,89.30
2017-09-15T05:43:20.225Z,89.30
2017-09-15T05:45:48.627Z,88.90
2017-09-15T05:48:17.147Z,88.20
2017-09-15T05:50:45.513Z,85.50
2017-09-15T05:53:14.661Z,84.80
2017-09-15T05:55:43.117Z,84.80
2017-09-15T05:58:11.493Z,84.50
2017-09-15T06:00:39.934Z,83.80
2017-09-15T06:03:08.431Z,80.90
2017-09-15T06:05:37.619Z,76.80
2017-09-15T06:08:06.787Z,75.20
2017-09-15T06:10:35.480Z,75.20
2017-09-15T06:13:04.964Z,71.00
2017-09-15T06:15:35.008Z,66.80
2017-09-15T06:18:03.469Z,66.80
2017-09-15T06:20:31.905Z,63.80
2017-09-15T06:23:00.314Z,61.70
2017-09-15T06:25:28.751Z,58.20
2017-09-15T06:27:57.203Z,57.50
2017-09-15T06:30:25.596Z,55.40
2017-09-15T06:32:54.014Z,53.50
2017-09-15T06:35:22.405Z,54.00
2017-09-15T06:37:50.819Z,51.30
2017-09-15T06:40:19.236Z,50.70
2017-09-15T06:42:47.748Z,49.10
2017-09-15T06:45:16.228Z,49.10
2017-09-15T06:47:44.660Z,48.60
2017-09-15T06:50:13.826Z,46.70
2017-09-15T06:52:42.232Z,46.70
2017-09-15T06:55:11.447Z,46.60
2017-09-15T06:57:39.937Z,46.60
2017-09-15T07:00:08.367Z,47.20
2017-09-15T07:02:36.774Z,47.50
2017-09-15T07:05:06.011Z,46.60
2017-09-15T07:07:34.417Z,46.60
2017-09-15T07:10:02.856Z,46.50
2017-09-15T07:12:31.279Z,46.20
2017-09-15T07:14:59.682Z,44.70
2017-09-15T07:17:28.119Z,45.20
2017-09-15T07:19:56.504Z,43.10
2017-09-15T07:22:24.898Z,43.20
2017-09-15T07:24:53.323Z,42.10
2017-09-15T07:27:21.721Z,41.90
2017-09-15T07:29:50.111Z,43.00
2017-09-15T07:32:18.571Z,43.80
2017-09-15T07:34:46.945Z,41.70
2017-09-15T07:37:15.333Z,41.40
2017-09-15T07:39:43.752Z,42.60
2017-09-15T07:42:12.272Z,43.20
2017-09-15T07:44:40.649Z,41.90
2017-09-15T07:47:09.098Z,40.30
2017-09-15T07:49:37.490Z,39.80
2017-09-15T07:52:06.653Z,40.80
2017-09-15T07:54:35.086Z,40.80
2017-09-15T07:57:03.466Z,39.10
2017-09-15T07:59:31.866Z,38.50
2017-09-15T08:02:00.303Z,38.30
2017-09-15T08:04:28.697Z,37.50
2017-09-15T08:06:57.083Z,37.40
2017-09-15T08:09:25.506Z,37.10
2017-09-15T08:11:53.923Z,36.40
2017-09-15T08:14:23.104Z,35.90
2017-09-15T08:16:51.526Z,35.90
2017-09-15T08:19:19.918Z,36.50
2017-09-15T08:21:48.294Z,35.90
2017-09-15T08:24:16.734Z,36.50
2017-09-15T08:26:45.896Z,37.00
2017-09-15T08:29:14.288Z,37.10
2017-09-15T08:31:42.699Z,36.90
2017-09-15T08:34:11.862Z,35.10
2017-09-15T08:36:40.264Z,35.10
2017-09-15T08:39:09.459Z,35.20
2017-09-15T08:41:38.772Z,36.00
2017-09-15T08:44:07.183Z,36.00
2017-09-15T08:46:35.639Z,36.50
2017-09-15T08:49:04.080Z,35.90
2017-09-15T08:51:32.461Z,35.00
2017-09-15T08:54:00.957Z,35.90
2017-09-15T08:56:29.355Z,36.50
2017-09-15T08:58:57.747Z,36.40
2017-09-15T09:01:26.166Z,36.00
2017-09-15T09:03:54.793Z,36.20
2017-09-15T09:06:23.973Z,36.30
2017-09-15T09:08:52.532Z,36.30
2017-09-15T09:11:21.046Z,35.80
2017-09-15T09:13:50.224Z,35.20
2017-09-15T09:16:18.725Z,35.20
2017-09-15T09:18:47.919Z,34.90
2017-09-15T09:21:17.211Z,33.30
2017-09-15T09:23:45.724Z,33.30
2017-09-15T09:26:14.168Z,32.60
2017-09-15T09:28:43.560Z,32.00
2017-09-15T09:31:12.026Z,32.00
2017-09-15T09:33:40.417Z,30.80
2017-09-15T09:36:08.826Z,32.20
2017-09-15T09:38:37.238Z,32.70
2017-09-15T09:41:05.646Z,35.10
2017-09-15T09:43:34.043Z,34.20
2017-09-15T09:46:02.530Z,33.30
2017-09-15T09:48:30.935Z,32.20
2017-09-15T09:50:59.328Z,31.10
2017-09-15T09:53:27.768Z,30.80
2017-09-15T09:55:56.928Z,30.40
2017-09-15T09:58:25.323Z,30.40
2017-09-15T10:00:53.746Z,29.70
2017-09-15T10:03:22.141Z,30.00
2017-09-15T10:05:50.528Z,29.20
2017-09-15T10:08:19.115Z,30.30
2017-09-15T10:10:47.504Z,29.60
2017-09-15T10:13:15.888Z,29.00
2017-09-15T10:15:44.358Z,30.50
2017-09-15T10:18:12.797Z,31.10
2017-09-15T10:20:41.233Z,32.10
2017-09-15T10:23:09.735Z,31.00
2017-09-15T10:25:38.905Z,32.90
2017-09-15T10:28:07.283Z,32.90
2017-09-15T10:30:35.702Z,30.70
2017-09-15T10:33:04.839Z,30.70
2017-09-15T10:35:33.236Z,30.60
2017-09-15T10:38:01.940Z,29.90
2017-09-15T10:40:30.376Z,30.40
2017-09-15T10:42:58.782Z,29.60
2017-09-15T10:45:27.302Z,29.60
2017-09-15T10:47:55.732Z,29.00
2017-09-15T10:50:24.117Z,29.60
2017-09-15T10:52:52.817Z,30.20
2017-09-15T10:55:21.359Z,29.50
2017-09-15T11:00:55.878Z,29.70
2017-09-15T11:03:25.064Z,29.60
2017-09-15T11:05:57.306Z,30.00
2017-09-15T11:08:25.786Z,29.90
2017-09-15T11:10:54.192Z,29.80
2017-09-15T11:13:23.353Z,30.30
2017-09-15T11:15:51.804Z,30.20
2017-09-15T11:18:20.188Z,28.60
2017-09-15T11:20:48.571Z,28.80
2017-09-15T11:23:16.994Z,27.30
2017-09-15T11:25:45.372Z,28.60
2017-09-15T11:28:13.747Z,28.30
2017-09-15T11:30:42.253Z,28.30
2017-09-15T11:33:11.447Z,30.00
2017-09-15T11:35:40.644Z,31.60
2017-09-15T11:38:09.104Z,31.60
2017-09-15T11:40:37.580Z,31.90
2017-09-15T11:43:05.984Z,33.20
2017-09-15T11:45:35.206Z,36.00
2017-09-15T11:48:03.797Z,36.00
2017-09-15T11:50:32.228Z,36.90
2017-09-15T11:53:00.662Z,37.80
2017-09-15T11:55:29.048Z,38.90
2017-09-15T11:57:57.419Z,39.20
2017-09-15T12:00:25.935Z,37.90
2017-09-15T12:02:54.357Z,38.60
2017-09-15T12:05:22.735Z,36.00
2017-09-15T12:07:51.211Z,37.10
2017-09-15T12:10:19.639Z,37.10
2017-09-15T12:12:48.024Z,35.30
2017-09-15T12:15:16.437Z,34.60
2017-09-15T12:17:45.606Z,35.50
2017-09-15T12:20:14.046Z,35.50
2017-09-15T12:22:42.456Z,36.00
2017-09-15T12:25:10.836Z,35.10
2017-09-15T12:27:39.262Z,37.30
2017-09-15T12:30:07.706Z,37.50
2017-09-15T12:32:36.094Z,37.20
2017-09-15T12:35:04.470Z,37.20
2017-09-15T12:37:32.892Z,37.40
2017-09-15T12:40:01.288Z,37.70
2017-09-15T12:42:29.691Z,40.10
2017-09-15T12:44:58.115Z,39.90
2017-09-15T12:47:26.505Z,40.60
2017-09-15T12:49:55.010Z,41.30
2017-09-15T12:52:23.442Z,41.20
2017-09-15T12:54:51.871Z,40.00
2017-09-15T12:57:20.282Z,39.60
2017-09-15T12:59:48.752Z,39.90
2017-09-15T13:02:17.309Z,39.20
2017-09-15T13:04:45.720Z,37.60
2017-09-15T13:07:14.171Z,36.10
2017-09-15T13:09:42.658Z,36.50
2017-09-15T13:12:11.044Z,35.70
2017-09-15T13:14:39.478Z,35.10
2017-09-15T13:17:07.889Z,35.90
2017-09-15T13:19:36.274Z,33.40
2017-09-15T13:22:04.721Z,32.90
2017-09-15T13:24:33.101Z,32.20
2017-09-15T13:27:01.475Z,30.40
2017-09-15T13:29:29.908Z,30.90
2017-09-15T13:31:58.292Z,33.00
2017-09-15T13:34:26.673Z,32.90
2017-09-15T13:36:55.099Z,33.30
2017-09-15T13:39:23.479Z,33.40
2017-09-15T13:41:51.903Z,35.80
2017-09-15T13:44:20.331Z,36.10
2017-09-15T13:46:48.723Z,36.60
2017-09-15T13:49:17.132Z,36.80
2017-09-15T13:51:45.550Z,36.90
2017-09-15T13:54:13.951Z,37.70
2017-09-15T13:56:42.390Z,38.40
2017-09-15T13:59:10.837Z,38.10
2017-09-15T14:01:39.256Z,39.50
2017-09-15T14:04:07.704Z,39.30
2017-09-15T14:06:36.107Z,39.70
2017-09-15T14:09:04.638Z,39.90
2017-09-15T14:11:33.036Z,39.20
2017-09-15T14:14:01.504Z,39.80
2017-09-15T14:16:29.909Z,41.00
2017-09-15T14:18:58.325Z,41.10
2017-09-15T14:21:26.739Z,41.70
2017-09-15T14:23:55.119Z,42.30
2017-09-15T14:26:23.499Z,42.80
2017-09-15T14:28:51.925Z,42.90
2017-09-15T14:31:20.322Z,42.60
2017-09-15T14:33:48.752Z,41.50
2017-09-15T14:36:17.187Z,43.30
2017-09-15T14:38:45.584Z,44.80
2017-09-15T14:41:14.006Z,43.10
2017-09-15T14:43:42.472Z,43.70
2017-09-15T14:46:11.663Z,44.60
2017-09-15T14:48:40.099Z,44.60
2017-09-15T14:51:08.534Z,46.10
2017-09-15T14:53:36.915Z,43.50
2017-09-15T14:56:05.320Z,43.50
2017-09-15T14:58:34.011Z,46.90
2017-09-15T15:01:03.187Z,48.00
2017-09-15T15:03:31.574Z,48.00
2017-09-15T15:06:00.022Z,47.90
2017-09-15T15:08:28.560Z,48.50
2017-09-15T15:10:56.977Z,48.20
2017-09-15T15:13:25.722Z,48.80
2017-09-15T15:15:54.865Z,48.00
2017-09-15T15:18:23.247Z,48.00
2017-09-15T15:20:51.663Z,47.50
2017-09-15T15:23:20.048Z,48.00
2017-09-15T15:25:48.842Z,48.40
2017-09-15T15:28:18.220Z,45.80
2017-09-15T15:30:47.426Z,44.70
2017-09-15T15:33:16.614Z,46.40
2017-09-15T15:35:45.043Z,46.40
2017-09-15T15:38:13.447Z,46.30
2017-09-15T15:40:41.823Z,45.90
2017-09-15T15:43:10.265Z,46.60
2017-09-15T15:45:38.653Z,46.00
2017-09-15T15:48:07.472Z,47.30
2017-09-15T15:50:35.922Z,46.90
2017-09-15T15:53:04.314Z,46.00
2017-09-15T15:55:32.714Z,46.60
2017-09-15T15:58:01.147Z,47.50
2017-09-15T16:00:29.697Z,47.80
2017-09-15T16:02:58.337Z,47.30
2017-09-15T16:05:26.797Z,48.00
2017-09-15T16:07:55.171Z,48.60
2017-09-15T16:10:23.552Z,48.80
2017-09-15T16:12:51.987Z,48.40
2017-09-15T16:15:21.174Z,48.80
2017-09-15T16:17:49.557Z,48.70
2017-09-15T16:20:17.960Z,49.60
2017-09-15T16:22:46.338Z,49.40
2017-09-15T16:25:14.735Z,49.70
2017-09-15T16:27:43.972Z,50.20
2017-09-15T16:30:12.417Z,50.10
2017-09-15T16:32:41.591Z,51.20
2017-09-15T16:35:10.768Z,51.20
2017-09-15T16:37:38.573Z,50.20
2017-09-15T16:40:13.277Z,50.50
2017-09-15T16:42:47.119Z,50.50
2017-09-15T16:45:21.145Z,51.90
2017-09-15T16:47:54.956Z,51.80
2017-09-15T16:50:23.730Z,52.70
2017-09-15T16:52:52.175Z,53.00
2017-09-15T16:55:21.559Z,51.80
2017-09-15T16:57:50.178Z,52.10
2017-09-15T17:00:18.998Z,52.00
2017-09-15T17:02:47.518Z,52.90
2017-09-15T17:05:15.998Z,51.90
2017-09-15T17:07:46.248Z,54.10
2017-09-15T17:10:15.823Z,54.40
2017-09-15T17:12:45.534Z,54.60
2017-09-15T17:15:15.135Z,54.30
2017-09-15T17:17:43.592Z,54.90
2017-09-15T17:20:13.050Z,55.40
2017-09-15T17:22:42.616Z,55.50
2017-09-15T17:25:11.341Z,55.50
2017-09-15T17:27:40.210Z,55.10
2017-09-15T17:30:08.957Z,55.80
2017-09-15T17:32:37.905Z,56.40
2017-09-15T17:35:06.930Z,57.20
2017-09-15T17:37:35.520Z,59.80
2017-09-15T17:40:04.034Z,63.10
2017-09-15T17:42:32.826Z,63.80
2017-09-15T17:45:01.238Z,63.30
2017-09-15T17:47:30.894Z,64.20
2017-09-15T17:49:59.909Z,64.20
2017-09-15T17:52:30.313Z,65.40
2017-09-15T17:54:59.236Z,65.30
2017-09-15T17:57:28.049Z,67.50
2017-09-15T17:59:57.743Z,68.50
2017-09-15T18:02:27.393Z,68.50
2017-09-15T18:04:56.580Z,69.10
2017-09-15T18:07:26.371Z,69.50
2017-09-15T18:09:54.833Z,69.50
2017-09-15T18:12:24.239Z,69.80
2017-09-15T18:14:54.397Z,69.60
2017-09-15T18:17:22.836Z,70.00
2017-09-15T18:19:53.310Z,71.60
2017-09-15T18:22:22.845Z,71.60
2017-09-15T18:24:51.382Z,72.20
2017-09-15T18:27:19.870Z,73.00
2017-09-15T18:29:48.620Z,73.80
2017-09-15T18:32:17.694Z,75.60
2017-09-15T18:34:47.094Z,74.50
2017-09-15T18:37:15.621Z,74.40
2017-09-15T18:39:44.876Z,74.90
2017-09-15T18:42:13.387Z,74.90
2017-09-15T18:44:42.543Z,75.90
2017-09-15T18:47:11.088Z,75.90
2017-09-15T18:49:39.596Z,76.10
2017-09-15T18:52:08.119Z,75.50
2017-09-15T18:54:36.552Z,75.80
2017-09-15T18:57:05.023Z,76.50
2017-09-15T18:59:33.571Z,75.60
2017-09-15T19:02:02.937Z,75.90
2017-09-15T19:04:31.476Z,75.90
2017-09-15T19:07:00.199Z,75.90
2017-09-15T19:09:28.740Z,76.20
2017-09-15T19:11:57.453Z,76.20
2017-09-15T19:14:26.765Z,76.50
2017-09-15T19:16:55.560Z,77.00
2017-09-15T19:19:25.303Z,77.80
2017-09-15T19:21:54.618Z,77.70
2017-09-15T19:24:23.302Z,78.10
2017-09-15T19:26:52.030Z,78.30
2017-09-15T19:29:20.902Z,78.90
2017-09-15T19:31:49.512Z,79.10
2017-09-15T19:34:17.976Z,79.50
2017-09-15T19:36:46.857Z,79.50
2017-09-15T19:39:15.737Z,80.00
2017-09-15T19:41:44.943Z,79.70
2017-09-15T19:44:13.731Z,79.60
2017-09-15T19:46:43.827Z,79.40
2017-09-15T19:49:12.841Z,79.50
2017-09-15T19:51:41.607Z,79.60
2017-09-15T19:54:10.538Z,79.70
2017-09-15T19:56:39.514Z,79.50
2017-09-15T19:59:08.181Z,79.20
2017-09-15T20:01:36.681Z,80.30
2017-09-15T20:04:05.226Z,79.90
2017-09-15T20:06:33.822Z,80.60
2017-09-15T20:09:03.366Z,81.00
2017-09-15T20:11:56.039Z,80.90
2017-09-15T20:14:34.855Z,80.90
2017-09-15T20:17:10.402Z,80.40
2017-09-15T20:19:45.883Z,80.40
2017-09-15T20:22:14.784Z,80.70
2017-09-15T20:24:43.257Z,80.30
2017-09-15T20:27:11.705Z,81.40
2017-09-15T20:29:40.299Z,81.20
2017-09-15T20:32:08.776Z,81.40
2017-09-15T20:34:38.131Z,81.20
2017-09-15T20:37:06.672Z,81.20
2017-09-15T20:39:35.254Z,81.30
2017-09-15T20:42:03.669Z,81.50
2017-09-15T20:44:32.471Z,81.50
2017-09-15T20:47:00.902Z,81.60
2017-09-15T20:49:29.375Z,81.60
2017-09-15T20:51:57.875Z,81.50
2017-09-15T20:54:26.312Z,81.40
2017-09-15T20:56:54.734Z,81.60
2017-09-15T20:59:23.182Z,81.60
2017-09-15T21:01:51.635Z,81.30
2017-09-15T21:04:20.017Z,82.00
2017-09-15T21:06:48.496Z,82.00
2017-09-15T21:09:16.886Z,82.50
2017-09-15T21:11:45.623Z,83.00
2017-09-15T21:14:14.138Z,83.80
2017-09-15T21:16:42.685Z,84.20
2017-09-15T21:19:11.935Z,85.60
2017-09-15T21:21:40.387Z,85.60
2017-09-15T21:24:08.905Z,85.10
2017-09-15T21:26:37.344Z,85.00
2017-09-15T21:29:05.840Z,84.40
2017-09-15T21:31:34.336Z,85.50
2017-09-15T21:34:02.784Z,84.00
2017-09-15T21:36:31.276Z,85.10
2017-09-15T21:38:59.853Z,85.90
2017-09-15T21:41:28.569Z,86.60
2017-09-15T21:43:57.395Z,86.30
2017-09-15T21:46:26.212Z,86.80
2017-09-15T21:48:55.195Z,86.90
2017-09-15T21:51:23.651Z,86.10
2017-09-15T21:53:52.070Z,85.90
2017-09-15T21:56:20.624Z,86.00
2017-09-15T21:58:49.322Z,86.10
2017-09-15T22:01:17.751Z,86.40
2017-09-15T22:03:51.811Z,86.00
2017-09-15T22:06:20.820Z,85.80
2017-09-15T22:08:49.276Z,86.10
2017-09-15T22:11:17.686Z,85.80
2017-09-15T22:13:46.194Z,85.50
2017-09-15T22:16:14.907Z,85.70
2017-09-15T22:18:43.773Z,85.30
2017-09-15T22:21:13.324Z,86.50
2017-09-15T22:23:42.088Z,85.70
2017-09-15T22:26:10.706Z,85.30
2017-09-15T22:28:40.296Z,86.10
2017-09-15T22:31:08.970Z,87.10
2017-09-15T22:33:37.503Z,87.00
2017-09-15T22:36:06.160Z,86.70
2017-09-15T22:38:35.000Z,86.40
2017-09-15T22:41:03.848Z,86.40
2017-09-15T22:43:32.632Z,86.50
2017-09-15T22:46:01.233Z,86.20
2017-09-15T22:48:29.666Z,86.20
2017-09-15T22:50:58.884Z,86.90
2017-09-15T22:53:27.475Z,86.90
2017-09-15T22:55:56.517Z,87.30
2017-09-15T22:58:24.940Z,87.10
2017-09-15T23:00:53.326Z,86.50
2017-09-15T23:03:21.731Z,86.20
2017-09-15T23:05:50.111Z,86.10
2017-09-15T23:08:18.815Z,86.10
2017-09-15T23:10:47.201Z,86.10
2017-09-15T23:13:15.585Z,87.00
2017-09-15T23:15:44.016Z,87.10
2017-09-15T23:18:12.927Z,86.50
2017-09-15T23:20:57.356Z,86.40
2017-09-15T23:23:52.770Z,85.90
2017-09-15T23:26:45.363Z,86.20
2017-09-15T23:29:37.284Z,86.40
2017-09-15T23:32:06.944Z,86.40
2017-09-15T23:34:35.336Z,86.00
2017-09-15T23:37:03.722Z,86.30
2017-09-15T23:39:32.150Z,86.40
2017-09-15T23:42:00.966Z,86.50
2017-09-15T23:44:30.125Z,86.30
2017-09-15T23:46:58.556Z,86.20
2017-09-15T23:49:26.939Z,85.70
2017-09-15T23:51:55.352Z,85.90
2017-09-15T23:54:23.820Z,86.00
2017-09-15T23:56:52.232Z,86.10
2017-09-15T23:59:21.420Z,85.60
